Time;durP1;ratioP1;P1;durP2;ratioP2;P2;SDS_P1;SDS_P2;PMS_P1;PMS_P2;Temp;Humidity;BMP_temperature;BMP_pressure;BME280_temperature;BME280_humidity;BME280_pressure;Samples;Min_cycle;Max_cycle;Signal;HPM_P1;HPM_P2
2021/12/27 11:34:08;;;;;;;3.25;2.80;;;9.10;99.90;;;;;;6187717;22;885471;-78
2021/12/27 11:36:38;;;;;;;3.92;2.70;;;9.10;99.90;;;;;;6164365;22;1310182;-79
2021/12/27 11:39:24;;;;;;;3.95;2.65;;;9.10;99.90;;;;;;6194153;22;89076;-78
2021/12/27 11:42:11;;;;;;;4.45;2.70;;;9.10;99.90;;;;;;6194345;22;92766;-81
2021/12/27 11:44:48;;;;;;;3.35;2.45;;;9.10;99.90;;;;;;6164124;22;92157;-79
2021/12/27 11:47:32;;;;;;;4.07;3.10;;;9.10;99.90;;;;;;6188412;22;88910;-73
2021/12/27 11:50:02;;;;;;;2.78;2.40;;;9.10;99.90;;;;;;6190972;22;88941;-74
2021/12/27 11:52:39;;;;;;;3.17;2.38;;;9.20;99.90;;;;;;6190511;22;89586;-72
2021/12/27 11:55:10;;;;;;;4.13;3.03;;;9.10;99.90;;;;;;6190630;22;89002;-72
2021/12/27 11:57:45;;;;;;;3.20;2.75;;;9.10;99.90;;;;;;6160347;22;88874;-72
2021/12/27 12:00:17;;;;;;;4.57;3.00;;;9.00;99.90;;;;;;6160036;22;89110;-75
2021/12/27 12:02:51;;;;;;;4.70;3.08;;;8.90;99.90;;;;;;6133381;22;92457;-76
2021/12/27 12:05:36;;;;;;;5.18;3.28;;;8.90;99.90;;;;;;6160493;22;89146;-73
2021/12/27 12:08:06;;;;;;;5.57;3.20;;;9.00;99.90;;;;;;6160191;22;88892;-73
2021/12/27 12:10:32;;;;;;;4.80;3.40;;;9.10;99.90;;;;;;6160250;22;88876;-72
2021/12/27 12:13:21;;;;;;;7.28;4.50;;;9.20;99.90;;;;;;6133051;22;91657;-72
2021/12/27 12:16:09;;;;;;;5.47;3.83;;;9.20;99.90;;;;;;6159640;22;88970;-74
2021/12/27 12:18:41;;;;;;;4.95;3.55;;;9.20;99.90;;;;;;6160428;22;88927;-72
2021/12/27 12:21:27;;;;;;;5.75;3.38;;;9.10;99.90;;;;;;6160182;22;88968;-72
2021/12/27 12:23:59;;;;;;;5.78;3.40;;;9.10;99.90;;;;;;6159009;22;89410;-73
2021/12/27 12:26:25;;;;;;;5.40;3.60;;;9.20;99.90;;;;;;6133049;22;92133;-73
2021/12/27 12:29:01;;;;;;;3.80;3.20;;;9.30;99.90;;;;;;6160161;22;89022;-72
2021/12/27 12:31:32;;;;;;;4.90;3.42;;;9.20;99.90;;;;;;6160400;22;88813;-73
2021/12/27 12:34:19;;;;;;;6.80;3.50;;;9.20;99.90;;;;;;6159696;22;88979;-73
2021/12/27 12:37:00;;;;;;;4.68;2.88;;;9.20;99.90;;;;;;6159745;22;88949;-73
2021/12/27 12:39:41;;;;;;;4.80;3.22;;;9.30;99.90;;;;;;6160280;22;88810;-73
2021/12/27 12:42:11;;;;;;;3.55;2.90;;;9.50;99.90;;;;;;6160226;22;88702;-73
2021/12/27 12:44:59;;;;;;;3.33;2.90;;;9.60;99.90;;;;;;6133120;22;93002;-73
2021/12/27 12:47:27;;;;;;;4.88;3.55;;;9.90;99.90;;;;;;6159487;22;89134;-73
2021/12/27 12:49:53;;;;;;;4.75;3.30;;;10.00;99.90;;;;;;6133229;22;88996;-73
2021/12/27 12:52:20;;;;;;;4.28;3.40;;;10.10;99.90;;;;;;6159547;22;88829;-73
2021/12/27 12:54:46;;;;;;;4.53;3.20;;;10.20;99.90;;;;;;6133628;22;91532;-73
2021/12/27 12:57:18;;;;;;;3.53;3.22;;;10.20;99.90;;;;;;6159654;22;89309;-73
2021/12/27 12:59:55;;;;;;;4.28;3.10;;;10.10;99.90;;;;;;6160138;22;88932;-73
2021/12/27 13:02:26;;;;;;;4.13;3.28;;;10.30;99.90;;;;;;6159615;22;88872;-73
2021/12/27 13:04:56;;;;;;;9.13;3.08;;;10.30;99.90;;;;;;6133230;22;91561;-73
2021/12/27 13:07:50;;;;;;;4.43;3.05;;;10.30;99.90;;;;;;6159293;22;89570;-73
2021/12/27 13:10:20;;;;;;;4.75;3.45;;;10.30;99.90;;;;;;6160222;22;88964;-73
2021/12/27 13:12:46;;;;;;;5.88;2.80;;;10.40;99.90;;;;;;6132953;22;89212;-73
2021/12/27 13:15:13;;;;;;;4.65;3.17;;;10.40;99.90;;;;;;6159211;22;89519;-73
2021/12/27 13:17:39;;;;;;;6.55;3.65;;;10.60;99.90;;;;;;6159238;22;88859;-73
2021/12/27 13:20:13;;;;;;;3.05;2.72;;;10.60;99.90;;;;;;6159873;22;89103;-73
2021/12/27 13:22:49;;;;;;;3.28;2.70;;;10.50;99.90;;;;;;6159631;22;88702;-73
2021/12/27 13:25:38;;;;;;;5.72;3.08;;;10.30;99.90;;;;;;6132585;22;91476;-73
2021/12/27 13:28:04;;;;;;;6.38;3.78;;;10.30;99.90;;;;;;6132499;22;89057;-73
2021/12/27 13:30:30;;;;;;;7.03;4.13;;;10.10;99.90;;;;;;6159666;22;88984;-73
2021/12/27 13:32:55;;;;;;;4.40;3.45;;;10.10;99.90;;;;;;6159605;22;89090;-73
2021/12/27 13:35:21;;;;;;;6.03;4.13;;;10.10;99.90;;;;;;6132855;22;91876;-73
2021/12/27 13:37:46;;;;;;;5.53;3.60;;;10.00;99.90;;;;;;6159531;22;89071;-73
2021/12/27 13:40:17;;;;;;;5.22;3.25;;;10.00;99.90;;;;;;6159591;22;88848;-73
2021/12/27 13:42:43;;;;;;;4.32;3.50;;;9.90;99.90;;;;;;6132353;22;89203;-73
2021/12/27 13:45:16;;;;;;;4.95;3.38;;;9.80;99.90;;;;;;6159418;22;90119;-73
2021/12/27 13:47:50;;;;;;;5.90;3.50;;;9.70;99.90;;;;;;6159626;22;88923;-73
2021/12/27 13:50:16;;;;;;;4.53;3.28;;;9.70;99.90;;;;;;6159628;22;88916;-74
2021/12/27 13:52:45;;;;;;;5.38;4.05;;;9.70;99.90;;;;;;6159623;22;89132;-74
2021/12/27 13:55:22;;;;;;;8.70;4.63;;;9.70;99.90;;;;;;6159128;22;90046;-74
2021/12/27 13:57:48;;;;;;;12.73;6.95;;;9.70;99.90;;;;;;6158088;22;89287;-73
2021/12/27 14:00:14;;;;;;;13.20;7.95;;;9.70;99.90;;;;;;6131378;22;92475;-73
2021/12/27 14:02:44;;;;;;;7.82;5.20;;;9.60;99.90;;;;;;6157796;22;89690;-73
2021/12/27 14:05:10;;;;;;;5.80;3.88;;;9.60;99.90;;;;;;6157633;22;90038;-73
2021/12/27 14:07:35;;;;;;;6.55;4.80;;;9.60;99.90;;;;;;6157112;22;90637;-73
2021/12/27 14:10:03;;;;;;;6.72;4.63;;;9.50;99.90;;;;;;6157701;22;89666;-73
2021/12/27 14:12:31;;;;;;;7.00;4.22;;;9.50;99.90;;;;;;6157696;22;89304;-73
2021/12/27 14:15:01;;;;;;;6.65;4.22;;;9.50;99.90;;;;;;6158048;22;89605;-74
2021/12/27 14:17:28;;;;;;;5.85;4.10;;;9.40;99.90;;;;;;6157152;22;89197;-74
2021/12/27 14:20:13;;;;;;;7.68;5.60;;;9.40;99.90;;;;;;6157999;22;89271;-72
2021/12/27 14:22:38;;;;;;;6.35;5.15;;;9.40;99.90;;;;;;6157888;22;89243;-76
2021/12/27 14:25:05;;;;;;;6.30;4.43;;;9.40;99.90;;;;;;6158311;22;89767;-77
2021/12/27 14:27:46;;;;;;;5.88;4.32;;;9.40;99.90;;;;;;6157663;22;89181;-74
2021/12/27 14:30:22;;;;;;;8.55;4.10;;;9.40;99.90;;;;;;6157751;22;90211;-74
2021/12/27 14:33:03;;;;;;;6.43;4.93;;;9.30;99.90;;;;;;6157264;22;90204;-74
2021/12/27 14:35:33;;;;;;;5.75;4.35;;;9.30;99.90;;;;;;6157623;22;89225;-72
2021/12/27 14:38:22;;;;;;;6.07;4.30;;;9.20;99.90;;;;;;6157913;22;90389;-77
2021/12/27 14:40:51;;;;;;;6.43;4.63;;;9.20;99.90;;;;;;6157875;22;90127;-77
2021/12/27 14:43:20;;;;;;;6.18;4.53;;;9.20;99.90;;;;;;6157835;22;89385;-76
2021/12/27 14:45:46;;;;;;;9.68;4.90;;;9.20;99.90;;;;;;6157251;22;89587;-74
2021/12/27 14:48:13;;;;;;;6.45;4.93;;;9.10;99.90;;;;;;6157777;22;90193;-76
2021/12/27 14:50:40;;;;;;;6.50;5.07;;;9.10;99.90;;;;;;6130585;22;92152;-76
2021/12/27 14:53:07;;;;;;;7.05;4.90;;;9.10;99.90;;;;;;6158438;22;89266;-73
2021/12/27 14:55:33;;;;;;;9.23;6.40;;;9.00;99.90;;;;;;6157080;22;89825;-76
2021/12/27 14:57:59;;;;;;;11.50;6.40;;;9.00;99.90;;;;;;6156540;22;91326;-76
2021/12/27 15:00:28;;;;;;;11.20;6.25;;;8.90;99.90;;;;;;6130040;22;93568;-75
2021/12/27 15:02:54;;;;;;;8.63;6.28;;;8.90;99.90;;;;;;6157190;22;89413;-75
2021/12/27 15:05:20;;;;;;;9.00;6.03;;;8.80;99.90;;;;;;6130122;22;92689;-75
2021/12/27 15:07:46;;;;;;;8.95;7.00;;;8.80;99.90;;;;;;6157202;22;89112;-76
2021/12/27 15:10:11;;;;;;;11.50;8.65;;;8.70;99.90;;;;;;6156956;22;89698;-76
2021/12/27 15:12:38;;;;;;;10.15;6.75;;;8.70;99.90;;;;;;6156985;22;89107;-76
2021/12/27 15:15:05;;;;;;;13.35;8.23;;;8.70;99.90;;;;;;6157175;22;89748;-76
2021/12/27 15:17:31;;;;;;;10.40;7.57;;;8.60;99.90;;;;;;6130156;22;91926;-75
2021/12/27 15:19:57;;;;;;;11.75;8.05;;;8.60;99.90;;;;;;6156350;22;89659;-74
2021/12/27 15:22:23;;;;;;;14.75;8.45;;;8.50;99.90;;;;;;6155018;22;90516;-75
2021/12/27 15:24:49;;;;;;;12.52;7.93;;;8.50;99.90;;;;;;6156990;22;90105;-75
2021/12/27 15:27:16;;;;;;;11.13;7.75;;;8.40;99.90;;;;;;6156557;22;89348;-74
2021/12/27 15:29:44;;;;;;;8.90;6.30;;;8.40;99.90;;;;;;6156926;22;89474;-74
2021/12/27 15:32:10;;;;;;;8.50;5.93;;;8.40;99.90;;;;;;6156640;22;89198;-74
2021/12/27 15:34:36;;;;;;;8.80;6.40;;;8.30;99.90;;;;;;6157258;22;89573;-75
2021/12/27 15:37:02;;;;;;;8.55;6.53;;;8.30;99.90;;;;;;6156469;22;89206;-75
2021/12/27 15:39:27;;;;;;;11.27;7.75;;;8.20;99.90;;;;;;6157332;22;90038;-75
2021/12/27 15:41:55;;;;;;;15.07;9.55;;;8.20;99.90;;;;;;6156997;22;89230;-74
2021/12/27 15:44:20;;;;;;;14.10;10.23;;;8.20;99.90;;;;;;6156124;22;90047;-74
2021/12/27 15:46:46;;;;;;;13.90;9.77;;;8.20;99.90;;;;;;6154888;22;90225;-74
2021/12/27 15:49:12;;;;;;;12.93;9.50;;;8.10;99.90;;;;;;6156630;22;89854;-76
2021/12/27 15:51:39;;;;;;;13.68;9.45;;;8.10;99.90;;;;;;6156943;22;89384;-74
2021/12/27 15:54:04;;;;;;;14.52;9.25;;;8.10;99.90;;;;;;6156342;22;89507;-73
2021/12/27 15:56:30;;;;;;;13.63;8.68;;;8.00;99.90;;;;;;6156320;22;89247;-74
2021/12/27 15:58:56;;;;;;;11.13;7.38;;;8.00;99.90;;;;;;6157824;22;90178;-73
2021/12/27 16:01:21;;;;;;;10.82;7.82;;;8.00;99.90;;;;;;6158393;22;89126;-73
2021/12/27 16:03:47;;;;;;;10.55;7.22;;;8.00;99.90;;;;;;6158215;22;89626;-74
2021/12/27 16:06:13;;;;;;;11.30;7.82;;;8.00;99.90;;;;;;6157817;22;89109;-74
2021/12/27 16:08:38;;;;;;;12.98;9.35;;;8.00;99.90;;;;;;6158524;22;89233;-74
2021/12/27 16:11:05;;;;;;;10.20;7.47;;;8.10;99.90;;;;;;6130936;22;90208;-74
2021/12/27 16:13:36;;;;;;;8.85;6.60;;;8.10;99.90;;;;;;6130743;22;91343;-74
2021/12/27 16:16:05;;;;;;;8.68;6.68;;;8.00;99.90;;;;;;6130859;22;92587;-74
2021/12/27 16:18:31;;;;;;;9.20;7.03;;;8.00;99.90;;;;;;6158158;22;89432;-74
2021/12/27 16:29:50;;;;;;;14.55;11.07;;;7.90;99.90;;;;;;6191244;22;91461;-75
2021/12/27 16:32:17;;;;;;;15.63;11.25;;;7.90;99.90;;;;;;6213480;22;89166;-75
2021/12/27 16:34:42;;;;;;;15.70;11.32;;;7.90;99.90;;;;;;6216018;22;89552;-75
2021/12/27 16:37:08;;;;;;;16.35;12.10;;;7.90;99.90;;;;;;6190763;22;90768;-75
2021/12/27 16:39:33;;;;;;;14.55;10.18;;;7.90;99.90;;;;;;6186706;22;90712;-76
2021/12/27 16:42:00;;;;;;;15.32;11.10;;;7.80;99.90;;;;;;6159348;22;89192;-75
2021/12/27 16:44:27;;;;;;;17.13;11.40;;;7.80;99.90;;;;;;6186808;22;89296;-75
2021/12/27 16:46:53;;;;;;;16.35;11.30;;;7.80;99.90;;;;;;6186172;22;89239;-75
2021/12/27 16:49:18;;;;;;;13.02;10.25;;;7.80;99.90;;;;;;6185840;22;91172;-75
2021/12/27 16:51:44;;;;;;;16.17;10.70;;;7.80;99.90;;;;;;6186048;22;89454;-75
2021/12/27 16:54:09;;;;;;;11.57;8.90;;;7.80;99.90;;;;;;6186820;22;89112;-75
2021/12/27 16:56:35;;;;;;;16.10;11.38;;;7.80;99.90;;;;;;6187058;22;90265;-76
2021/12/27 16:59:01;;;;;;;16.67;10.68;;;7.90;99.90;;;;;;6159773;22;91318;-75
2021/12/27 17:01:27;;;;;;;17.80;10.98;;;8.00;99.90;;;;;;6158798;22;90132;-76
2021/12/27 17:03:54;;;;;;;17.38;10.63;;;8.00;99.90;;;;;;6186375;22;89667;-75
2021/12/27 17:06:21;;;;;;;15.50;9.40;;;8.10;99.90;;;;;;6185685;22;89102;-76
2021/12/27 17:08:46;;;;;;;13.73;8.82;;;8.10;99.90;;;;;;6184894;22;89646;-75
2021/12/27 17:11:12;;;;;;;14.77;8.95;;;8.10;99.90;;;;;;6188128;22;89581;-75
2021/12/27 17:13:39;;;;;;;15.90;9.82;;;8.00;99.90;;;;;;6187253;22;90545;-75
2021/12/27 17:16:06;;;;;;;19.08;11.15;;;8.00;99.90;;;;;;6187700;22;89550;-75
2021/12/27 17:18:32;;;;;;;17.30;9.15;;;8.00;99.90;;;;;;6160764;22;92564;-75
2021/12/27 17:20:57;;;;;;;16.35;9.70;;;7.90;99.90;;;;;;6188077;22;89214;-75
2021/12/27 17:23:23;;;;;;;19.67;11.07;;;7.90;99.90;;;;;;6159958;22;92722;-75
2021/12/27 17:25:49;;;;;;;19.50;11.63;;;7.90;99.90;;;;;;6186585;22;90197;-75
2021/12/27 17:28:14;;;;;;;17.08;10.18;;;7.90;99.90;;;;;;6188478;22;89741;-76
2021/12/27 17:30:43;;;;;;;19.60;11.32;;;7.90;99.90;;;;;;6185731;22;89281;-75
2021/12/27 17:33:08;;;;;;;21.80;11.18;;;7.90;99.90;;;;;;6186724;22;89889;-75
2021/12/27 17:35:35;;;;;;;21.33;11.52;;;7.90;99.90;;;;;;6185693;22;90009;-75
2021/12/27 17:38:01;;;;;;;21.17;11.45;;;7.90;99.90;;;;;;6186864;22;90733;-75
2021/12/27 17:40:27;;;;;;;20.40;10.93;;;7.90;99.90;;;;;;6187204;22;89393;-75
2021/12/27 17:42:53;;;;;;;19.70;11.70;;;7.90;99.90;;;;;;6187752;22;90156;-75
2021/12/27 17:45:20;;;;;;;22.52;12.25;;;7.80;99.90;;;;;;6187671;22;90033;-76
2021/12/27 17:47:49;;;;;;;22.20;12.30;;;7.90;99.90;;;;;;6160471;22;92708;-76
2021/12/27 17:50:17;;;;;;;24.55;12.32;;;7.90;99.90;;;;;;6159819;22;90281;-78
2021/12/27 17:52:43;;;;;;;21.48;12.55;;;7.80;99.90;;;;;;6160272;22;92128;-76
2021/12/27 17:55:09;;;;;;;27.65;13.18;;;7.80;99.90;;;;;;6188081;22;89144;-77
2021/12/27 17:57:35;;;;;;;22.10;13.60;;;7.80;99.90;;;;;;6189286;22;89126;-76
2021/12/27 18:00:03;;;;;;;23.33;13.93;;;7.80;99.90;;;;;;6188314;22;89090;-74
2021/12/27 18:02:28;;;;;;;26.02;13.80;;;7.70;99.90;;;;;;6159914;22;93430;-76
2021/12/27 18:04:53;;;;;;;26.83;15.63;;;7.70;99.90;;;;;;6186980;22;92535;-76
2021/12/27 18:07:19;;;;;;;24.35;13.68;;;7.70;99.90;;;;;;6187649;22;89607;-74
2021/12/27 18:09:46;;;;;;;26.20;13.80;;;7.70;99.90;;;;;;6187465;22;89627;-75
2021/12/27 18:12:16;;;;;;;24.35;13.50;;;7.70;99.90;;;;;;6187193;22;89274;-75
2021/12/27 18:14:43;;;;;;;24.95;12.18;;;7.70;99.90;;;;;;6187184;22;90204;-75
2021/12/27 18:17:09;;;;;;;22.52;12.70;;;7.70;99.90;;;;;;6187290;22;89548;-75
2021/12/27 18:19:35;;;;;;;26.27;13.52;;;7.70;99.90;;;;;;6188071;22;89389;-74
2021/12/27 18:22:00;;;;;;;20.48;11.27;;;7.70;99.90;;;;;;6186530;22;89293;-76
2021/12/27 18:24:26;;;;;;;16.67;11.27;;;7.70;99.90;;;;;;6186877;22;89179;-74
2021/12/27 18:26:52;;;;;;;19.27;11.18;;;7.70;99.90;;;;;;6187484;22;89764;-75
2021/12/27 18:29:18;;;;;;;20.35;10.75;;;7.70;99.90;;;;;;6187472;22;89254;-75
2021/12/27 18:31:43;;;;;;;18.52;9.95;;;7.80;99.90;;;;;;6187790;22;89541;-75
2021/12/27 18:34:10;;;;;;;19.02;9.65;;;7.80;99.90;;;;;;6188632;22;89762;-75
2021/12/27 18:36:36;;;;;;;18.63;9.73;;;7.80;99.90;;;;;;6188380;22;89488;-75
2021/12/27 18:39:03;;;;;;;12.90;8.77;;;7.80;99.90;;;;;;6187577;22;90235;-76
2021/12/27 18:41:29;;;;;;;15.18;9.57;;;7.80;99.90;;;;;;6187943;22;89519;-75
2021/12/27 18:43:58;;;;;;;14.82;9.18;;;7.90;99.90;;;;;;6160480;22;91399;-75
2021/12/27 18:46:24;;;;;;;13.68;8.52;;;7.90;99.90;;;;;;6160253;22;91001;-75
2021/12/27 18:48:51;;;;;;;15.38;9.15;;;7.80;99.90;;;;;;6187867;22;89094;-76
2021/12/27 18:51:17;;;;;;;14.75;9.57;;;7.80;99.90;;;;;;6188569;22;91982;-76
2021/12/27 18:53:42;;;;;;;15.30;9.07;;;7.80;99.90;;;;;;6187297;22;89739;-76
2021/12/27 18:56:13;;;;;;;17.85;9.57;;;7.80;99.90;;;;;;6187809;22;89390;-75
2021/12/27 18:58:41;;;;;;;12.35;8.40;;;7.80;99.90;;;;;;6188205;22;89118;-77
2021/12/27 19:01:09;;;;;;;12.05;8.45;;;7.80;99.90;;;;;;6187781;22;90117;-76
2021/12/27 19:03:35;;;;;;;13.27;8.18;;;7.80;99.90;;;;;;6186599;22;90174;-75
2021/12/27 19:06:01;;;;;;;12.45;8.15;;;7.80;99.90;;;;;;6187934;22;90683;-75
2021/12/27 19:08:27;;;;;;;12.93;8.75;;;7.80;99.90;;;;;;6188762;22;89178;-74
2021/12/27 19:10:53;;;;;;;12.23;7.75;;;7.70;99.90;;;;;;6188512;22;89765;-74
2021/12/27 19:13:18;;;;;;;10.50;6.93;;;7.80;99.90;;;;;;6187212;22;89730;-76
2021/12/27 19:15:44;;;;;;;10.88;7.43;;;7.70;99.90;;;;;;6160179;22;92206;-76
2021/12/27 19:18:10;;;;;;;10.82;7.55;;;7.70;99.90;;;;;;6188224;22;89165;-73
2021/12/27 19:20:36;;;;;;;13.18;8.05;;;7.70;99.90;;;;;;6188099;22;89754;-73
2021/12/27 19:23:02;;;;;;;12.32;8.65;;;7.70;99.90;;;;;;6159685;22;92376;-74
2021/12/27 19:25:28;;;;;;;10.18;7.43;;;7.60;99.90;;;;;;6187464;22;89672;-73
2021/12/27 19:27:54;;;;;;;16.17;9.13;;;7.60;99.90;;;;;;6187310;22;90231;-73
2021/12/27 19:30:22;;;;;;;16.23;10.57;;;7.60;99.90;;;;;;6187303;22;89759;-73
2021/12/27 19:32:48;;;;;;;17.42;11.20;;;7.60;99.90;;;;;;6159619;22;91663;-73
2021/12/27 19:35:18;;;;;;;11.05;6.93;;;7.60;99.90;;;;;;6187077;22;89905;-73
2021/12/27 19:37:45;;;;;;;13.00;7.97;;;7.60;99.90;;;;;;6161278;22;89310;-73
2021/12/27 19:40:11;;;;;;;11.00;8.02;;;7.60;99.90;;;;;;6186105;22;90159;-73
2021/12/27 19:42:37;;;;;;;11.05;7.22;;;7.60;99.90;;;;;;6188153;22;90328;-73
2021/12/27 19:45:04;;;;;;;12.60;9.13;;;7.60;99.90;;;;;;6189480;22;91150;-73
2021/12/27 19:47:30;;;;;;;9.88;7.05;;;7.50;99.90;;;;;;6188979;22;89136;-74
2021/12/27 19:49:55;;;;;;;8.13;5.97;;;7.50;99.90;;;;;;6188604;22;89663;-73
2021/12/27 19:52:21;;;;;;;8.63;6.32;;;7.60;99.90;;;;;;6187848;22;91175;-74
2021/12/27 19:54:46;;;;;;;10.15;6.18;;;7.60;99.90;;;;;;6188225;22;89350;-73
2021/12/27 19:57:12;;;;;;;7.18;4.95;;;7.60;99.90;;;;;;6187108;22;89264;-73
2021/12/27 19:59:37;;;;;;;5.35;4.15;;;7.60;99.90;;;;;;6188233;22;89648;-74
2021/12/27 20:02:05;;;;;;;6.00;4.25;;;7.60;99.90;;;;;;6187245;22;89910;-74
2021/12/27 20:04:31;;;;;;;6.95;4.57;;;7.60;99.90;;;;;;6188529;22;89223;-74
2021/12/27 20:06:57;;;;;;;7.60;6.57;;;7.60;99.90;;;;;;6188946;22;89127;-74
2021/12/27 20:09:24;;;;;;;6.55;4.80;;;7.60;99.90;;;;;;6189289;22;89799;-74
2021/12/27 20:11:49;;;;;;;7.63;4.78;;;7.60;99.90;;;;;;6188508;22;90262;-73
2021/12/27 20:14:15;;;;;;;7.68;4.80;;;7.60;99.90;;;;;;6188695;22;89082;-74
2021/12/27 20:16:41;;;;;;;8.05;5.70;;;7.60;99.90;;;;;;6188481;22;90209;-74
2021/12/27 20:19:06;;;;;;;5.90;4.60;;;7.60;99.90;;;;;;6161268;22;92408;-74
2021/12/27 20:21:32;;;;;;;6.28;4.97;;;7.60;99.90;;;;;;6188588;22;90278;-74
2021/12/27 20:23:58;;;;;;;7.97;4.93;;;7.60;99.90;;;;;;6188149;22;90514;-74
2021/12/27 20:26:25;;;;;;;6.78;5.00;;;7.60;99.90;;;;;;6188938;22;89312;-74
2021/12/27 20:28:51;;;;;;;7.18;4.65;;;7.60;99.90;;;;;;6188239;22;89395;-73
2021/12/27 20:31:17;;;;;;;6.35;4.57;;;7.70;99.90;;;;;;6161175;22;92971;-73
2021/12/27 20:33:43;;;;;;;5.65;4.85;;;7.60;99.90;;;;;;6188902;22;90732;-73
2021/12/27 20:36:08;;;;;;;6.85;5.50;;;7.70;99.90;;;;;;6188864;22;89550;-73
2021/12/27 20:38:34;;;;;;;5.35;4.10;;;7.70;99.90;;;;;;6188476;22;90697;-73
2021/12/27 20:41:00;;;;;;;6.20;4.53;;;7.70;99.90;;;;;;6188126;22;91330;-74
2021/12/27 20:43:26;;;;;;;6.53;4.97;;;7.60;99.90;;;;;;6188380;22;90831;-73
2021/12/27 20:45:53;;;;;;;7.55;4.32;;;7.60;99.90;;;;;;6189470;22;89411;-73
2021/12/27 20:48:20;;;;;;;6.00;4.40;;;7.70;99.90;;;;;;6162155;22;92498;-76
2021/12/27 20:50:46;;;;;;;5.82;4.20;;;7.70;99.90;;;;;;6189722;22;89913;-74
2021/12/27 20:53:13;;;;;;;6.80;4.60;;;7.70;99.90;;;;;;6188624;22;89356;-73
2021/12/27 20:55:41;;;;;;;7.22;4.05;;;7.70;99.90;;;;;;6188810;22;89083;-74
2021/12/27 20:58:08;;;;;;;5.30;3.45;;;7.70;99.90;;;;;;6189436;22;89825;-73
2021/12/27 21:00:42;;;;;;;5.57;4.22;;;7.70;99.90;;;;;;6161123;22;91659;-73
2021/12/27 21:03:08;;;;;;;5.32;4.20;;;7.70;99.90;;;;;;6188503;22;90058;-73
2021/12/27 21:05:34;;;;;;;5.32;4.10;;;7.70;99.90;;;;;;6187945;22;90594;-74
2021/12/27 21:08:12;;;;;;;5.47;4.15;;;7.70;99.90;;;;;;6188400;22;89625;-74
2021/12/27 21:10:43;;;;;;;7.50;4.60;;;7.60;99.90;;;;;;6188450;22;89890;-74
2021/12/27 21:13:10;;;;;;;5.95;4.15;;;7.60;99.90;;;;;;6160961;22;92578;-74
2021/12/27 21:15:36;;;;;;;6.57;4.78;;;7.60;99.90;;;;;;6188895;22;89500;-74
2021/12/27 21:18:02;;;;;;;6.20;4.63;;;7.60;99.90;;;;;;6161121;22;91803;-74
2021/12/27 21:20:28;;;;;;;8.32;4.53;;;7.60;99.90;;;;;;6188380;22;90044;-74
2021/12/27 21:22:54;;;;;;;7.22;5.10;;;7.60;99.90;;;;;;6188614;22;89907;-74
2021/12/27 21:25:20;;;;;;;7.00;4.93;;;7.50;99.90;;;;;;6188478;22;89182;-74
2021/12/27 21:27:46;;;;;;;6.72;4.70;;;7.50;99.90;;;;;;6188420;22;89277;-74
2021/12/27 21:30:12;;;;;;;7.95;5.50;;;7.50;99.90;;;;;;6187256;22;91172;-74
2021/12/27 21:32:39;;;;;;;6.53;5.10;;;7.50;99.90;;;;;;6188055;22;89541;-74
2021/12/27 21:35:06;;;;;;;7.40;5.45;;;7.50;99.90;;;;;;6188929;22;89091;-74
2021/12/27 21:37:32;;;;;;;6.45;5.57;;;7.50;99.90;;;;;;6188574;22;89498;-75
2021/12/27 21:39:58;;;;;;;7.97;5.38;;;7.50;99.90;;;;;;6188198;22;89789;-74
2021/12/27 21:42:23;;;;;;;9.05;5.78;;;7.50;99.90;;;;;;6161108;22;92430;-75
2021/12/27 21:44:50;;;;;;;8.73;5.30;;;7.50;99.90;;;;;;6188568;22;89173;-74
2021/12/27 21:47:16;;;;;;;6.22;4.72;;;7.50;99.90;;;;;;6188539;22;89091;-74
2021/12/27 21:49:42;;;;;;;7.63;4.93;;;7.50;99.90;;;;;;6187878;22;89348;-74
2021/12/27 21:52:07;;;;;;;6.82;4.95;;;7.50;99.90;;;;;;6187960;22;89287;-74
2021/12/27 21:54:38;;;;;;;8.77;5.57;;;7.50;99.90;;;;;;6187277;22;90268;-74
2021/12/27 21:57:04;;;;;;;6.82;5.60;;;7.50;99.90;;;;;;6187096;22;90151;-74
2021/12/27 21:59:30;;;;;;;8.18;5.80;;;7.50;99.90;;;;;;6187765;22;89655;-74
2021/12/27 22:01:55;;;;;;;8.05;5.85;;;7.40;99.90;;;;;;6187655;22;89505;-75
2021/12/27 22:04:21;;;;;;;10.10;6.35;;;7.40;99.90;;;;;;6187847;22;89214;-74
2021/12/27 22:06:46;;;;;;;11.75;6.78;;;7.40;99.90;;;;;;6187842;22;90025;-74
2021/12/27 22:09:13;;;;;;;12.27;7.82;;;7.40;99.90;;;;;;6187931;22;89992;-75
2021/12/27 22:11:39;;;;;;;10.13;7.18;;;7.40;99.90;;;;;;6188044;22;90286;-74
2021/12/27 22:14:05;;;;;;;11.65;8.02;;;7.40;99.90;;;;;;6187955;22;89356;-75
2021/12/27 22:16:31;;;;;;;11.68;7.57;;;7.40;99.90;;;;;;6187441;22;90329;-75
2021/12/27 22:18:57;;;;;;;10.90;7.53;;;7.40;99.90;;;;;;6186919;22;91371;-74
2021/12/27 22:21:22;;;;;;;9.30;7.05;;;7.40;99.90;;;;;;6160437;22;92277;-74
2021/12/27 22:23:48;;;;;;;8.95;6.80;;;7.40;99.90;;;;;;6187829;22;89546;-74
2021/12/27 22:26:15;;;;;;;9.88;6.65;;;7.40;99.90;;;;;;6187300;22;89283;-74
2021/12/27 22:28:40;;;;;;;9.68;6.57;;;7.40;99.90;;;;;;6187360;22;89783;-74
2021/12/27 22:31:08;;;;;;;9.25;7.07;;;7.40;99.90;;;;;;6187608;22;90580;-74
2021/12/27 22:33:35;;;;;;;8.32;6.15;;;7.40;99.90;;;;;;6187635;22;89278;-74
2021/12/27 22:36:00;;;;;;;10.20;7.15;;;7.40;99.90;;;;;;6187728;22;89619;-74
2021/12/27 22:38:27;;;;;;;7.10;6.00;;;7.40;99.90;;;;;;6187331;22;91069;-74
2021/12/27 22:40:53;;;;;;;7.68;5.55;;;7.40;99.90;;;;;;6187544;22;90035;-74
2021/12/27 22:43:18;;;;;;;8.43;5.80;;;7.40;99.90;;;;;;6186973;22;90113;-75
2021/12/27 22:45:47;;;;;;;8.68;6.13;;;7.40;99.90;;;;;;6159768;22;92410;-75
2021/12/27 22:48:12;;;;;;;7.88;6.05;;;7.40;99.90;;;;;;6160335;22;92560;-74
2021/12/27 22:50:38;;;;;;;7.65;5.70;;;7.40;99.90;;;;;;6186525;22;89479;-75
2021/12/27 22:53:04;;;;;;;8.00;5.90;;;7.50;99.90;;;;;;6186323;22;89207;-75
2021/12/27 22:55:31;;;;;;;7.25;5.75;;;7.40;99.90;;;;;;6186431;22;89597;-75
2021/12/27 22:57:58;;;;;;;8.50;5.68;;;7.40;99.90;;;;;;6185616;22;89560;-75
2021/12/27 23:18:31;;;;;;;11.30;6.00;;;7.30;99.90;;;;;;6208367;22;91792;-72
2021/12/27 23:20:56;;;;;;;9.65;6.15;;;7.20;99.90;;;;;;6219159;22;89706;-72
2021/12/27 23:23:22;;;;;;;10.00;5.85;;;7.00;99.90;;;;;;6217336;22;89526;-72
2021/12/27 23:25:48;;;;;;;9.32;6.07;;;7.10;99.90;;;;;;6219248;22;88794;-72
2021/12/27 23:28:14;;;;;;;13.00;6.18;;;7.10;99.90;;;;;;6165430;22;91179;-71
2021/12/27 23:30:46;;;;;;;13.02;6.55;;;7.00;99.90;;;;;;6211307;22;90669;-74
2021/12/27 23:33:22;;;;;;;9.77;6.15;;;7.00;99.90;;;;;;6218091;22;90115;-74
2021/12/27 23:35:51;;;;;;;16.75;7.57;;;6.90;99.90;;;;;;6219424;22;90288;-74
2021/12/27 23:38:20;;;;;;;9.77;6.63;;;6.90;99.90;;;;;;6219262;22;89793;-74
2021/12/27 23:40:46;;;;;;;10.82;6.63;;;7.00;99.90;;;;;;6191088;22;89851;-74
2021/12/27 23:43:11;;;;;;;17.58;7.05;;;7.00;99.90;;;;;;6188649;22;89101;-74
2021/12/27 23:45:39;;;;;;;12.52;7.60;;;7.10;99.90;;;;;;6187763;22;89366;-74
2021/12/27 23:48:05;;;;;;;9.75;6.55;;;7.20;99.90;;;;;;6161193;22;92901;-74
2021/12/27 23:50:32;;;;;;;10.48;6.32;;;7.30;99.90;;;;;;6161480;22;92768;-74
2021/12/27 23:52:57;;;;;;;11.98;6.28;;;7.30;99.90;;;;;;6188402;22;89169;-74
2021/12/27 23:55:24;;;;;;;9.35;6.03;;;7.40;99.90;;;;;;6188373;22;90022;-74
2021/12/27 23:57:51;;;;;;;12.57;5.95;;;7.40;99.90;;;;;;6187839;22;90869;-74
